Alliance, Ohio
Current Conditions -  °F | °C
As of 3:51 AM on Friday 21 Nov 2014 (Local Time) from KCAK Reporting Station
Clear Clear  
Wind Chill: -14°   Ceiling: Unl
Heat Index: -8°   Visibility: 10mi
Dew Point: -12°   Wind: 10mph
Humidity: 71%   Direction: 280°W
Pressure: 30.23"   Gusts: NA
Location:  40.92°N, 81.1°W
Report Text: KCAK 210851Z 28009KT 10SM CLR M08/M12 A3023 RMK AO2 SLP256 T10781122 53022 $
Loading
Personal Weather Stations






























Interactive Weather Map New forecast layout! Learn more

10-Day Weather Forecast

Advertisements
Track Severe Weather on mobile